Time;durP1;ratioP1;P1;durP2;ratioP2;P2;SDS_P1;SDS_P2;PMS_P1;PMS_P2;Temp;Humidity;BMP_temperature;BMP_pressure;BME280_temperature;BME280_humidity;BME280_pressure;Samples;Min_cycle;Max_cycle;Signal;HPM_P1;HPM_P2
2023/07/29 00:00:19;;;;;;;5.25;3.10;;;18.40;64.50;;;;;;5053092;28;20040;-77
2023/07/29 00:02:47;;;;;;;4.63;2.80;;;18.50;64.10;;;;;;5066020;28;20025;-76
2023/07/29 00:05:14;;;;;;;5.07;2.53;;;18.70;63.80;;;;;;5072139;28;20032;-76
2023/07/29 00:07:42;;;;;;;7.47;2.60;;;18.80;63.30;;;;;;5060148;28;20063;-78
2023/07/29 00:10:09;;;;;;;5.03;2.78;;;19.00;62.80;;;;;;5060531;28;20052;-78
2023/07/29 00:12:37;;;;;;;4.07;2.10;;;19.10;62.60;;;;;;5042503;28;20025;-83
2023/07/29 00:15:06;;;;;;;4.68;2.30;;;19.20;62.50;;;;;;5038236;28;20052;-77
2023/07/29 00:17:33;;;;;;;5.10;1.95;;;19.20;62.10;;;;;;5053386;28;20480;-77
2023/07/29 00:20:00;;;;;;;5.05;2.00;;;19.50;61.20;;;;;;5053147;28;20087;-79
2023/07/29 00:22:28;;;;;;;6.20;2.00;;;19.60;60.60;;;;;;5054800;28;20075;-86
2023/07/29 00:24:57;;;;;;;3.92;2.00;;;19.70;60.40;;;;;;5054217;28;20306;-81
2023/07/29 00:27:25;;;;;;;3.38;1.95;;;19.80;59.90;;;;;;5049677;28;20055;-78
2023/07/29 00:29:53;;;;;;;5.13;1.90;;;19.90;59.70;;;;;;5047015;28;20074;-82
2023/07/29 00:32:20;;;;;;;3.38;1.83;;;20.00;60.20;;;;;;5044225;28;20128;-85
2023/07/29 00:34:47;;;;;;;4.97;1.90;;;20.20;59.20;;;;;;5054767;28;20510;-81
2023/07/29 00:37:15;;;;;;;2.88;1.33;;;20.50;58.80;;;;;;5060707;28;20544;-77
2023/07/29 00:39:42;;;;;;;5.00;1.88;;;20.70;57.60;;;;;;5047506;28;20021;-79
2023/07/29 00:42:10;;;;;;;3.65;1.52;;;20.90;57.30;;;;;;5050062;28;20520;-84
2023/07/29 00:44:37;;;;;;;3.88;1.88;;;21.10;57.00;;;;;;5050351;28;20031;-79
2023/07/29 00:47:06;;;;;;;1.92;1.13;;;21.30;56.50;;;;;;5050321;28;20021;-83
2023/07/29 00:49:34;;;;;;;2.20;1.23;;;21.50;54.40;;;;;;5053982;28;20395;-77
2023/07/29 00:52:01;;;;;;;3.53;1.40;;;21.80;53.70;;;;;;5049389;28;20104;-86
2023/07/29 00:54:29;;;;;;;3.33;1.30;;;22.00;52.90;;;;;;5041146;28;20037;-77
2023/07/29 00:56:56;;;;;;;4.03;1.15;;;22.00;52.50;;;;;;5052725;28;20020;-84
2023/07/29 00:59:24;;;;;;;1.90;0.80;;;22.00;52.40;;;;;;5065737;28;20028;-77
2023/07/29 01:01:51;;;;;;;2.13;1.00;;;22.00;51.40;;;;;;5072755;28;20020;-78
2023/07/29 01:04:19;;;;;;;1.17;0.98;;;22.00;51.40;;;;;;5073005;28;20027;-81
2023/07/29 01:07:08;;;;;;;2.72;1.13;;;22.00;50.70;;;;;;5057502;28;20032;-85
2023/07/29 01:09:41;;;;;;;1.30;0.98;;;22.00;50.70;;;;;;5052557;28;20044;-77
2023/07/29 01:12:21;;;;;;;1.20;0.93;;;22.00;51.20;;;;;;5052383;28;20035;-78
2023/07/29 01:15:07;;;;;;;2.00;0.90;;;22.30;51.40;;;;;;5048861;28;20055;-87
2023/07/29 01:17:44;;;;;;;2.10;0.80;;;22.30;50.80;;;;;;5052647;28;20052;-78
2023/07/29 01:20:20;;;;;;;1.70;0.93;;;22.50;50.30;;;;;;5052675;28;20047;-88
2023/07/29 01:22:50;;;;;;;3.40;1.13;;;22.70;50.30;;;;;;5051678;28;20037;-83
2023/07/29 01:25:17;;;;;;;2.95;0.90;;;22.80;49.10;;;;;;5054464;28;20345;-84
2023/07/29 01:27:53;;;;;;;1.88;1.33;;;22.90;49.30;;;;;;5052934;28;20017;-81
2023/07/29 01:30:26;;;;;;;2.30;1.10;;;23.00;48.60;;;;;;5033435;28;20041;-78
2023/07/29 01:33:01;;;;;;;1.65;1.00;;;23.20;49.50;;;;;;5050271;28;20033;-77
2023/07/29 01:35:35;;;;;;;1.80;0.88;;;23.30;47.90;;;;;;5052650;28;20374;-77
2023/07/29 01:38:19;;;;;;;3.25;0.82;;;23.30;47.80;;;;;;5052896;28;20114;-77
2023/07/29 01:40:47;;;;;;;3.53;1.10;;;23.30;47.80;;;;;;5052936;28;20021;-79
2023/07/29 01:43:15;;;;;;;1.90;1.00;;;23.30;48.30;;;;;;5052335;28;20099;-75
2023/07/29 01:45:42;;;;;;;2.00;0.88;;;23.30;47.80;;;;;;5051053;28;20110;-76
2023/07/29 01:48:10;;;;;;;2.42;1.00;;;23.20;48.30;;;;;;5051495;28;20035;-77
2023/07/29 01:50:37;;;;;;;2.50;1.10;;;23.20;48.60;;;;;;5052990;28;20072;-77
2023/07/29 01:53:04;;;;;;;5.47;1.10;;;23.10;49.30;;;;;;5050691;28;20025;-76
2023/07/29 01:55:32;;;;;;;3.92;1.65;;;22.90;49.70;;;;;;5051754;28;20025;-77
2023/07/29 01:57:59;;;;;;;4.60;1.52;;;22.90;48.70;;;;;;5050378;28;20112;-76
2023/07/29 02:00:27;;;;;;;3.88;1.25;;;22.80;49.20;;;;;;5050371;28;20514;-82
2023/07/29 02:02:54;;;;;;;4.50;1.10;;;22.80;50.10;;;;;;5052283;28;20025;-77
2023/07/29 02:05:21;;;;;;;4.50;1.58;;;22.70;50.70;;;;;;5052002;28;20029;-77
2023/07/29 02:07:49;;;;;;;3.83;1.48;;;22.70;49.60;;;;;;5050563;28;20036;-76
2023/07/29 02:10:16;;;;;;;3.03;1.20;;;22.80;49.00;;;;;;5051484;28;20037;-85
2023/07/29 02:12:43;;;;;;;2.47;1.02;;;22.80;49.60;;;;;;5052171;28;20381;-77
2023/07/29 02:15:11;;;;;;;2.25;1.00;;;22.70;49.60;;;;;;5046751;28;20722;-77
2023/07/29 02:17:38;;;;;;;2.50;1.15;;;22.80;48.90;;;;;;5052039;28;20407;-77
2023/07/29 02:20:06;;;;;;;1.80;0.82;;;22.80;48.20;;;;;;5052295;28;20049;-75
2023/07/29 02:22:34;;;;;;;4.35;1.20;;;22.80;48.60;;;;;;5050744;28;20036;-76
2023/07/29 02:25:02;;;;;;;1.48;0.80;;;22.80;48.60;;;;;;5052145;28;20051;-77
2023/07/29 02:27:29;;;;;;;1.65;1.00;;;22.80;47.90;;;;;;5049615;28;20025;-76
2023/07/29 02:29:57;;;;;;;1.90;0.95;;;22.80;47.80;;;;;;5050198;28;20044;-86
2023/07/29 02:32:24;;;;;;;1.50;0.90;;;22.80;47.10;;;;;;5036894;28;20017;-78
2023/07/29 02:34:52;;;;;;;2.28;1.25;;;22.80;46.80;;;;;;5050706;28;20032;-77
2023/07/29 02:37:19;;;;;;;1.20;1.08;;;22.90;46.50;;;;;;5053364;28;20488;-76
2023/07/29 02:39:47;;;;;;;2.85;1.27;;;23.00;47.00;;;;;;5054378;28;20078;-77
2023/07/29 02:42:15;;;;;;;2.42;1.08;;;22.90;46.60;;;;;;5054061;28;20155;-77
2023/07/29 02:44:42;;;;;;;4.85;1.35;;;22.90;47.30;;;;;;5052827;28;20017;-80
2023/07/29 02:47:10;;;;;;;3.33;1.17;;;22.80;48.70;;;;;;5055187;28;20021;-77
2023/07/29 02:49:37;;;;;;;3.08;1.20;;;22.90;48.90;;;;;;5055292;28;20059;-76
2023/07/29 02:52:05;;;;;;;2.80;1.30;;;23.00;48.30;;;;;;5055488;28;20023;-76
2023/07/29 02:54:33;;;;;;;4.53;1.30;;;23.10;48.30;;;;;;5055232;28;20108;-77
2023/07/29 02:57:01;;;;;;;1.55;1.17;;;23.10;48.50;;;;;;5053773;28;20017;-80
2023/07/29 02:59:28;;;;;;;3.42;1.30;;;23.10;48.90;;;;;;5054785;28;20025;-78
2023/07/29 03:01:56;;;;;;;3.38;1.40;;;23.10;49.10;;;;;;5054250;28;20478;-78
2023/07/29 03:04:23;;;;;;;3.75;1.48;;;23.10;49.50;;;;;;5055164;28;20116;-77
2023/07/29 03:06:50;;;;;;;4.00;1.58;;;23.20;48.30;;;;;;5054449;28;20021;-77
2023/07/29 03:09:18;;;;;;;6.05;1.63;;;23.20;47.70;;;;;;5052436;28;20028;-77
2023/07/29 03:11:45;;;;;;;3.05;1.40;;;23.10;48.60;;;;;;5053447;28;20028;-76
2023/07/29 03:14:13;;;;;;;3.58;1.50;;;23.00;49.00;;;;;;5054433;28;20037;-77
2023/07/29 03:16:40;;;;;;;1.95;1.10;;;22.90;49.20;;;;;;5054807;28;20530;-76
2023/07/29 03:19:08;;;;;;;1.77;1.13;;;22.80;49.40;;;;;;5054738;28;20067;-77
2023/07/29 03:21:35;;;;;;;2.33;1.30;;;22.80;48.80;;;;;;5054910;28;20502;-77
2023/07/29 03:24:02;;;;;;;4.57;1.48;;;22.80;49.70;;;;;;5053575;28;20453;-77
2023/07/29 03:26:30;;;;;;;3.10;1.65;;;22.70;49.90;;;;;;5053822;28;20021;-77
2023/07/29 03:28:57;;;;;;;3.35;1.65;;;22.70;50.10;;;;;;5054386;28;20021;-76
2023/07/29 03:31:24;;;;;;;3.78;1.48;;;22.70;50.30;;;;;;5054423;28;20086;-76
2023/07/29 03:33:52;;;;;;;3.33;1.33;;;22.60;50.40;;;;;;5053554;28;20025;-76
2023/07/29 03:36:19;;;;;;;4.82;1.65;;;22.60;50.60;;;;;;5054616;28;20170;-77
2023/07/29 03:38:47;;;;;;;4.68;1.70;;;22.50;50.90;;;;;;5054556;28;20082;-77
2023/07/29 03:41:14;;;;;;;5.10;1.50;;;22.40;51.00;;;;;;5054472;28;20017;-78
2023/07/29 03:43:41;;;;;;;5.88;2.42;;;22.30;51.20;;;;;;5054259;28;20029;-77
2023/07/29 03:46:09;;;;;;;3.60;1.65;;;22.30;51.40;;;;;;5054558;28;20110;-76
2023/07/29 03:48:37;;;;;;;2.08;1.35;;;22.20;51.40;;;;;;5052198;28;20029;-77
2023/07/29 03:51:04;;;;;;;3.17;1.60;;;22.10;51.50;;;;;;5054540;28;20043;-76
2023/07/29 03:53:32;;;;;;;3.35;1.60;;;22.10;51.60;;;;;;5056572;28;20082;-75
2023/07/29 03:55:59;;;;;;;3.05;1.60;;;22.00;51.60;;;;;;5058745;28;20099;-75
2023/07/29 03:58:27;;;;;;;3.40;2.00;;;22.00;51.80;;;;;;5055341;28;20036;-77
2023/07/29 04:00:54;;;;;;;4.45;1.98;;;21.90;52.10;;;;;;5055110;28;20078;-76
2023/07/29 04:03:22;;;;;;;3.40;2.22;;;22.00;51.60;;;;;;5054046;28;20045;-77
2023/07/29 04:05:49;;;;;;;5.18;1.55;;;22.00;51.70;;;;;;5052902;28;20025;-77
2023/07/29 04:08:16;;;;;;;3.92;1.30;;;22.00;51.70;;;;;;5053094;28;20021;-82
2023/07/29 04:10:44;;;;;;;4.15;1.58;;;22.10;51.50;;;;;;5053912;28;20021;-77
2023/07/29 04:13:14;;;;;;;5.18;1.23;;;22.10;51.70;;;;;;5053319;28;20049;-78
2023/07/29 04:15:42;;;;;;;4.47;1.42;;;22.10;51.80;;;;;;5051898;28;20025;-77
2023/07/29 04:18:09;;;;;;;4.40;1.15;;;22.10;51.80;;;;;;5051604;28;20048;-76
2023/07/29 04:20:36;;;;;;;3.25;1.15;;;22.10;51.90;;;;;;5052865;28;20056;-77
2023/07/29 04:23:04;;;;;;;5.93;1.30;;;22.20;51.10;;;;;;5052877;28;20025;-77
2023/07/29 04:25:31;;;;;;;2.75;1.00;;;22.20;51.20;;;;;;5050596;28;20036;-77
2023/07/29 04:27:58;;;;;;;6.05;1.30;;;22.20;51.10;;;;;;5051909;28;20563;-76
2023/07/29 04:30:26;;;;;;;3.42;1.10;;;22.20;50.90;;;;;;5050675;28;20029;-78
2023/07/29 04:32:53;;;;;;;6.47;1.40;;;22.20;51.10;;;;;;5049898;28;20411;-78
2023/07/29 04:35:21;;;;;;;5.60;1.63;;;22.20;51.40;;;;;;5041700;28;20507;-80
2023/07/29 04:37:49;;;;;;;5.93;1.60;;;22.20;51.40;;;;;;5052999;28;20391;-78
2023/07/29 04:40:17;;;;;;;5.05;1.75;;;22.20;51.70;;;;;;5051383;28;20029;-78
2023/07/29 04:42:50;;;;;;;3.72;2.20;;;22.20;52.00;;;;;;5053310;28;20208;-86
2023/07/29 04:45:17;;;;;;;5.00;1.80;;;22.20;52.20;;;;;;5052478;28;20076;-77
2023/07/29 04:47:44;;;;;;;4.25;1.38;;;22.20;52.10;;;;;;5053038;28;20017;-80
2023/07/29 04:50:12;;;;;;;4.82;1.20;;;22.10;52.10;;;;;;5052879;28;20059;-77
2023/07/29 04:52:39;;;;;;;3.90;1.35;;;22.00;52.10;;;;;;5051960;28;20568;-77
2023/07/29 04:55:07;;;;;;;2.55;1.20;;;22.00;52.40;;;;;;5053569;28;20040;-77
2023/07/29 04:57:34;;;;;;;2.50;1.30;;;22.00;52.70;;;;;;5049112;28;20032;-81
2023/07/29 05:00:02;;;;;;;3.58;1.30;;;21.90;52.80;;;;;;5051026;28;20500;-77
2023/07/29 05:02:30;;;;;;;4.53;1.10;;;21.90;52.50;;;;;;5052431;28;20051;-82
2023/07/29 05:04:57;;;;;;;2.72;1.10;;;21.90;52.60;;;;;;5054327;28;20116;-80
2023/07/29 05:07:24;;;;;;;5.03;1.40;;;21.80;52.70;;;;;;5053026;28;20041;-78
2023/07/29 05:09:52;;;;;;;2.92;1.17;;;21.80;53.00;;;;;;5053264;28;20017;-77
2023/07/29 05:12:19;;;;;;;4.45;1.20;;;21.80;53.30;;;;;;5052745;28;20025;-78
2023/07/29 05:14:50;;;;;;;2.40;1.40;;;21.70;53.50;;;;;;5051677;28;20026;-78
2023/07/29 05:17:17;;;;;;;4.78;1.50;;;21.70;53.60;;;;;;5049612;28;20159;-77
2023/07/29 05:19:48;;;;;;;4.00;1.85;;;21.60;53.70;;;;;;5052430;28;20510;-78
2023/07/29 05:22:15;;;;;;;2.78;1.17;;;21.60;54.00;;;;;;5053098;28;20458;-78
2023/07/29 05:24:43;;;;;;;2.20;1.30;;;21.50;54.20;;;;;;5051553;28;20017;-78
2023/07/29 05:27:10;;;;;;;3.00;1.20;;;21.50;54.30;;;;;;5049068;28;20083;-78
2023/07/29 05:29:37;;;;;;;3.35;1.30;;;21.50;54.40;;;;;;5052794;28;20042;-76
2023/07/29 05:32:05;;;;;;;1.10;0.88;;;21.40;54.60;;;;;;5052691;28;20025;-77
2023/07/29 05:34:39;;;;;;;4.57;1.10;;;21.50;54.80;;;;;;5051451;28;20455;-78
2023/07/29 05:37:06;;;;;;;3.00;1.27;;;21.40;54.90;;;;;;5032437;28;20476;-77
2023/07/29 05:39:34;;;;;;;3.22;1.25;;;21.40;55.10;;;;;;5039105;28;20424;-77
2023/07/29 05:42:04;;;;;;;3.42;1.40;;;21.30;55.20;;;;;;5052603;28;20545;-78
2023/07/29 05:44:31;;;;;;;4.35;1.63;;;21.30;55.30;;;;;;5052355;28;20033;-77
2023/07/29 05:46:59;;;;;;;5.10;1.10;;;21.30;55.60;;;;;;5049985;28;20071;-77
2023/07/29 05:49:27;;;;;;;2.65;1.60;;;21.30;56.00;;;;;;5052272;28;20025;-77
2023/07/29 05:51:54;;;;;;;3.20;1.85;;;21.30;55.80;;;;;;5052216;28;20045;-77
2023/07/29 05:54:22;;;;;;;3.13;1.48;;;21.30;56.00;;;;;;5052381;28;20464;-78
2023/07/29 05:56:49;;;;;;;2.65;1.40;;;21.20;56.20;;;;;;5052334;28;20025;-78
2023/07/29 05:59:16;;;;;;;4.82;1.40;;;21.20;56.40;;;;;;5052158;28;20072;-79
2023/07/29 06:01:44;;;;;;;5.10;1.55;;;21.10;56.70;;;;;;5052424;28;20025;-77
2023/07/29 06:04:11;;;;;;;4.07;1.48;;;21.10;57.10;;;;;;5049299;28;20094;-78
2023/07/29 06:06:39;;;;;;;4.00;1.17;;;21.00;57.40;;;;;;5066655;28;20029;-76
2023/07/29 06:09:06;;;;;;;3.25;1.20;;;21.00;57.30;;;;;;5052048;28;20104;-79
2023/07/29 06:11:34;;;;;;;3.55;1.77;;;20.90;57.10;;;;;;5054610;28;20491;-77
2023/07/29 06:14:01;;;;;;;3.65;1.23;;;20.90;57.50;;;;;;5055930;28;20036;-77
2023/07/29 06:16:29;;;;;;;3.83;1.55;;;20.80;57.40;;;;;;5054383;28;20404;-78
2023/07/29 06:18:57;;;;;;;2.28;1.30;;;20.80;57.80;;;;;;5055888;28;20048;-76
2023/07/29 06:21:24;;;;;;;3.40;1.60;;;20.70;58.00;;;;;;5053985;28;20029;-78
2023/07/29 06:23:52;;;;;;;5.00;1.52;;;20.60;58.20;;;;;;5055992;28;20075;-79
2023/07/29 06:26:20;;;;;;;3.17;2.30;;;20.60;58.40;;;;;;5055528;28;20533;-76
2023/07/29 06:28:47;;;;;;;9.75;7.18;;;20.50;58.40;;;;;;5054524;28;20025;-76
2023/07/29 06:31:15;;;;;;;5.63;2.00;;;20.40;58.60;;;;;;5055656;28;20491;-75
2023/07/29 06:33:42;;;;;;;3.28;1.50;;;20.40;58.80;;;;;;5055962;28;20029;-76
2023/07/29 06:36:09;;;;;;;3.85;1.20;;;20.40;59.00;;;;;;5053975;28;20024;-75
2023/07/29 06:38:38;;;;;;;2.50;1.00;;;20.40;59.20;;;;;;5054225;28;20037;-76
2023/07/29 06:41:09;;;;;;;4.18;1.20;;;20.30;59.40;;;;;;5055568;28;20052;-76
2023/07/29 06:43:36;;;;;;;1.20;0.85;;;20.30;59.70;;;;;;5053964;28;20102;-76
2023/07/29 06:46:04;;;;;;;1.85;1.05;;;20.30;59.70;;;;;;5055694;28;20480;-76
2023/07/29 06:48:32;;;;;;;2.60;1.30;;;20.20;59.70;;;;;;5054129;28;20082;-75
2023/07/29 06:51:00;;;;;;;3.63;1.23;;;20.20;59.80;;;;;;5052267;28;20021;-75
2023/07/29 06:53:31;;;;;;;5.15;3.17;;;20.20;59.70;;;;;;5054530;28;20082;-77
2023/07/29 06:55:58;;;;;;;3.35;2.53;;;20.10;59.70;;;;;;5055190;28;20090;-76
2023/07/29 06:58:26;;;;;;;5.85;3.60;;;20.10;59.90;;;;;;5055148;28;20136;-76
2023/07/29 07:00:53;;;;;;;5.18;3.10;;;20.00;60.00;;;;;;5052453;28;20024;-74
2023/07/29 07:03:20;;;;;;;2.88;1.70;;;20.00;60.20;;;;;;5042843;28;20035;-76
2023/07/29 07:05:48;;;;;;;3.42;1.80;;;20.00;60.40;;;;;;5053380;28;20116;-75
2023/07/29 07:08:15;;;;;;;3.92;1.63;;;20.00;60.50;;;;;;5054617;28;20017;-75
2023/07/29 07:10:42;;;;;;;3.97;1.88;;;19.90;60.70;;;;;;5052884;28;20379;-75
2023/07/29 07:13:10;;;;;;;5.95;1.70;;;19.90;60.90;;;;;;5054290;28;20502;-77
2023/07/29 07:15:38;;;;;;;2.95;1.60;;;19.80;61.10;;;;;;5054234;28;20040;-74
2023/07/29 07:18:06;;;;;;;4.78;1.67;;;19.80;61.30;;;;;;5054469;28;20040;-75
2023/07/29 07:20:33;;;;;;;2.97;1.58;;;19.80;61.40;;;;;;5054166;28;20055;-75
2023/07/29 07:23:00;;;;;;;4.18;1.60;;;19.80;61.60;;;;;;5051101;28;20049;-76
2023/07/29 07:25:28;;;;;;;5.95;1.70;;;19.70;61.80;;;;;;5062444;28;20499;-75
2023/07/29 07:27:55;;;;;;;2.45;1.70;;;19.70;61.90;;;;;;5053244;28;20506;-75
2023/07/29 07:30:23;;;;;;;4.22;2.05;;;19.70;62.10;;;;;;5052730;28;20040;-75
2023/07/29 07:32:50;;;;;;;7.70;3.67;;;19.70;62.10;;;;;;5054731;28;20147;-75
2023/07/29 07:35:18;;;;;;;5.28;3.50;;;19.60;62.20;;;;;;5054424;28;20036;-76
2023/07/29 07:37:46;;;;;;;5.28;3.03;;;19.60;62.40;;;;;;5056632;28;20047;-73
2023/07/29 07:40:13;;;;;;;6.75;2.75;;;19.50;62.60;;;;;;5057268;28;20021;-74
2023/07/29 07:42:40;;;;;;;6.30;2.40;;;19.50;62.70;;;;;;5053932;28;20391;-75
2023/07/29 07:45:08;;;;;;;4.10;1.83;;;19.50;63.00;;;;;;5053375;28;20124;-75
2023/07/29 07:47:35;;;;;;;4.00;2.00;;;19.40;63.10;;;;;;5049897;28;20036;-76
2023/07/29 07:50:04;;;;;;;3.35;2.00;;;19.30;63.40;;;;;;5053628;28;20021;-77
2023/07/29 07:52:31;;;;;;;4.10;2.10;;;19.30;63.60;;;;;;5053320;28;20021;-89
2023/07/29 07:54:59;;;;;;;4.47;2.10;;;19.20;63.80;;;;;;5053229;28;20559;-75
2023/07/29 07:57:26;;;;;;;4.93;2.85;;;19.30;63.90;;;;;;5050300;28;20087;-74
2023/07/29 07:59:53;;;;;;;5.50;2.38;;;19.20;64.10;;;;;;5045073;28;20439;-74
2023/07/29 08:02:21;;;;;;;3.65;2.10;;;19.20;64.30;;;;;;5052794;28;20124;-76
2023/07/29 08:04:48;;;;;;;3.28;2.30;;;19.20;64.30;;;;;;5066877;28;20048;-76
2023/07/29 08:07:16;;;;;;;7.68;5.38;;;19.10;64.20;;;;;;5068504;28;20108;-75
2023/07/29 08:09:43;;;;;;;7.05;4.13;;;19.10;64.50;;;;;;5056856;28;20357;-76
2023/07/29 08:12:10;;;;;;;8.52;4.15;;;19.00;64.50;;;;;;5053684;28;20029;-76
2023/07/29 08:14:38;;;;;;;8.80;3.85;;;19.00;64.60;;;;;;5056101;28;20072;-75
2023/07/29 08:17:05;;;;;;;4.68;3.17;;;19.00;64.70;;;;;;5062934;28;20048;-79
2023/07/29 08:19:36;;;;;;;6.40;2.97;;;19.00;64.70;;;;;;5054777;28;20032;-84
2023/07/29 08:22:04;;;;;;;7.55;2.97;;;18.90;64.90;;;;;;5052097;28;20021;-77
2023/07/29 08:24:31;;;;;;;6.60;2.72;;;18.90;64.90;;;;;;5052274;28;20048;-76
2023/07/29 08:26:58;;;;;;;4.75;2.83;;;18.90;64.90;;;;;;5033633;28;20030;-75
2023/07/29 08:29:26;;;;;;;6.00;3.08;;;18.80;65.00;;;;;;5033487;28;20052;-76
2023/07/29 08:31:55;;;;;;;5.93;2.70;;;18.70;65.40;;;;;;5044595;28;20087;-82
2023/07/29 08:34:22;;;;;;;4.38;2.67;;;18.70;65.50;;;;;;5046133;28;20037;-81
2023/07/29 08:36:50;;;;;;;6.43;2.60;;;18.70;65.60;;;;;;5050105;28;20037;-86
2023/07/29 08:39:17;;;;;;;6.13;3.63;;;18.70;65.70;;;;;;5052720;28;20033;-77
2023/07/29 08:41:57;;;;;;;8.60;3.80;;;18.70;65.80;;;;;;5059393;28;20044;-75
2023/07/29 08:44:30;;;;;;;9.32;3.40;;;18.60;65.90;;;;;;5073191;28;20028;-75
2023/07/29 08:46:57;;;;;;;5.93;3.80;;;18.60;65.90;;;;;;5073267;28;20020;-76
2023/07/29 08:49:25;;;;;;;4.88;3.65;;;18.50;66.20;;;;;;5073171;28;20048;-75
2023/07/29 08:51:55;;;;;;;8.52;4.90;;;18.50;66.30;;;;;;5061857;28;20033;-76
2023/07/29 08:54:22;;;;;;;7.57;3.92;;;18.50;66.40;;;;;;5052348;28;20036;-74
2023/07/29 08:56:50;;;;;;;9.63;3.78;;;18.50;66.40;;;;;;5049724;28;20032;-79
2023/07/29 08:59:18;;;;;;;8.20;4.38;;;18.40;66.50;;;;;;5048458;28;20029;-76
2023/07/29 09:01:47;;;;;;;9.00;4.75;;;18.40;66.50;;;;;;5050544;28;20474;-77
2023/07/29 09:04:14;;;;;;;7.85;4.82;;;18.40;66.60;;;;;;5064406;28;20164;-76
2023/07/29 09:06:43;;;;;;;24.13;13.70;;;18.40;66.60;;;;;;5064479;28;20027;-75
2023/07/29 09:09:11;;;;;;;25.30;12.98;;;18.30;66.70;;;;;;5050901;28;20100;-83
2023/07/29 09:11:38;;;;;;;17.25;10.90;;;18.30;66.90;;;;;;5052721;28;20475;-75
2023/07/29 09:14:05;;;;;;;16.75;9.57;;;18.20;66.90;;;;;;5051615;28;20029;-75
2023/07/29 09:16:34;;;;;;;15.40;9.05;;;18.20;67.20;;;;;;5050743;28;20058;-76
2023/07/29 09:19:05;;;;;;;14.50;8.23;;;18.20;67.30;;;;;;5053600;28;20056;-76
2023/07/29 09:21:33;;;;;;;15.90;7.40;;;18.10;67.30;;;;;;5049843;28;20088;-76
2023/07/29 09:24:07;;;;;;;14.38;7.05;;;18.00;67.60;;;;;;5065048;28;20021;-78
2023/07/29 09:26:35;;;;;;;12.00;6.40;;;17.90;67.80;;;;;;5063583;28;20070;-81
2023/07/29 09:29:03;;;;;;;12.05;6.65;;;18.00;67.70;;;;;;5049483;28;20080;-82
2023/07/29 09:31:30;;;;;;;10.45;6.53;;;17.90;68.00;;;;;;5047618;28;20447;-76
2023/07/29 09:33:59;;;;;;;10.23;6.40;;;17.90;68.10;;;;;;5049560;28;20036;-77
2023/07/29 09:36:27;;;;;;;8.93;6.00;;;17.80;68.30;;;;;;5049431;28;20041;-80
2023/07/29 09:38:56;;;;;;;10.13;5.68;;;17.80;68.50;;;;;;5050864;28;20582;-84
2023/07/29 09:41:28;;;;;;;10.00;5.30;;;17.80;68.40;;;;;;5050484;28;20480;-80
2023/07/29 09:44:04;;;;;;;10.60;5.30;;;17.70;68.20;;;;;;5049146;28;20045;-75
2023/07/29 09:46:34;;;;;;;;;;;17.70;68.30;;;;;;5052396;28;20476;-76
2023/07/29 09:49:07;;;;;;;10.90;5.35;;;17.70;68.20;;;;;;5050628;28;19940;-85
2023/07/29 09:51:43;;;;;;;17.85;9.23;;;17.70;68.50;;;;;;5053260;28;20029;-84
2023/07/29 09:54:13;;;;;;;9.95;6.35;;;17.70;68.00;;;;;;5049268;28;20045;-84
2023/07/29 09:56:44;;;;;;;15.30;7.03;;;17.70;68.10;;;;;;5051717;28;20087;-83
2023/07/29 09:59:34;;;;;;;12.82;7.03;;;17.70;68.20;;;;;;5059888;28;20033;-82
2023/07/29 10:02:02;;;;;;;11.75;7.22;;;17.60;67.90;;;;;;5044113;28;20032;-85
2023/07/29 10:04:31;;;;;;;15.65;7.28;;;17.60;68.20;;;;;;5054465;28;20033;-81
2023/07/29 10:07:00;;;;;;;15.57;7.55;;;17.50;68.00;;;;;;5052923;28;20021;-82
2023/07/29 10:09:29;;;;;;;13.40;8.20;;;17.40;67.70;;;;;;5055347;28;20108;-83
2023/07/29 10:11:57;;;;;;;13.55;8.30;;;17.30;68.30;;;;;;5053967;28;20064;-76
2023/07/29 10:14:27;;;;;;;13.30;7.97;;;17.30;68.60;;;;;;5054165;28;20139;-84
2023/07/29 10:16:56;;;;;;;14.63;9.60;;;17.30;69.00;;;;;;5069590;28;20047;-82
2023/07/29 10:19:25;;;;;;;16.73;9.20;;;17.20;68.90;;;;;;5053429;28;20033;-81
2023/07/29 10:21:55;;;;;;;15.18;9.05;;;17.20;68.60;;;;;;5055640;28;20023;-83
2023/07/29 10:24:29;;;;;;;15.60;9.00;;;17.20;68.40;;;;;;5051192;28;20111;-76
2023/07/29 10:27:01;;;;;;;18.58;11.10;;;17.20;68.60;;;;;;5050469;28;20120;-76
2023/07/29 10:29:46;;;;;;;16.40;8.65;;;17.20;68.60;;;;;;5051677;28;20024;-80
2023/07/29 10:32:13;;;;;;;17.08;9.02;;;17.10;68.70;;;;;;5050178;28;20029;-77
2023/07/29 10:34:42;;;;;;;12.73;7.22;;;17.00;68.90;;;;;;5053385;28;20017;-77
2023/07/29 10:37:10;;;;;;;10.77;6.80;;;17.00;69.00;;;;;;5045811;28;20039;-85
2023/07/29 10:39:51;;;;;;;9.68;5.95;;;16.90;69.10;;;;;;5057692;28;20537;-84
2023/07/29 10:42:19;;;;;;;13.70;6.60;;;16.90;69.40;;;;;;5065606;28;20491;-83
2023/07/29 10:44:54;;;;;;;14.88;7.47;;;16.90;69.80;;;;;;5066862;28;20029;-88
2023/07/29 10:47:29;;;;;;;12.88;7.32;;;16.90;69.80;;;;;;5052957;28;20017;-85
2023/07/29 10:50:02;;;;;;;37.13;27.70;;;16.80;69.70;;;;;;5051718;28;20147;-86
2023/07/29 10:52:36;;;;;;;51.65;43.78;;;16.80;69.80;;;;;;5054785;28;20376;-86
2023/07/29 10:55:23;;;;;;;35.72;24.55;;;16.80;70.40;;;;;;5050494;28;20029;-83
2023/07/29 10:57:51;;;;;;;22.05;13.75;;;16.80;70.20;;;;;;5046731;28;20028;-84
2023/07/29 11:00:23;;;;;;;33.78;26.63;;;16.80;70.00;;;;;;5045400;28;20764;-81
2023/07/29 11:03:09;;;;;;;43.20;35.45;;;16.80;69.60;;;;;;5064363;28;20032;-84
2023/07/29 11:05:48;;;;;;;22.95;17.83;;;16.80;70.60;;;;;;5044869;28;20028;-85
2023/07/29 11:08:33;;;;;;;15.60;9.73;;;16.80;69.90;;;;;;5058093;28;20026;-85
2023/07/29 11:11:05;;;;;;;16.83;10.00;;;16.70;69.70;;;;;;5049248;28;20021;-86
2023/07/29 11:13:34;;;;;;;16.17;9.25;;;16.70;70.10;;;;;;5054908;28;20029;-82
2023/07/29 11:16:02;;;;;;;15.77;8.98;;;16.70;69.90;;;;;;5056011;28;20071;-84
2023/07/29 11:18:34;;;;;;;15.52;9.90;;;16.60;70.20;;;;;;5053690;28;20033;-77
2023/07/29 11:21:03;;;;;;;18.15;9.75;;;16.60;70.40;;;;;;5053596;28;20079;-87
2023/07/29 11:23:34;;;;;;;17.08;10.60;;;16.60;70.80;;;;;;5053254;28;20372;-82
2023/07/29 11:26:03;;;;;;;17.70;10.45;;;16.60;71.00;;;;;;5054774;28;20025;-80
2023/07/29 11:28:30;;;;;;;14.43;8.70;;;16.60;71.10;;;;;;5059330;28;20425;-80
2023/07/29 11:30:58;;;;;;;15.23;7.85;;;16.60;71.00;;;;;;5066327;28;20383;-84
2023/07/29 11:33:28;;;;;;;18.25;10.70;;;16.60;70.40;;;;;;5052314;28;20036;-80
2023/07/29 11:35:56;;;;;;;17.60;11.52;;;16.60;70.50;;;;;;5048646;28;20029;-86
2023/07/29 11:38:24;;;;;;;22.15;13.35;;;16.50;70.60;;;;;;5050919;28;20049;-76
2023/07/29 11:40:59;;;;;;;48.63;41.10;;;16.50;70.90;;;;;;5055730;28;20021;-84
2023/07/29 11:43:27;;;;;;;25.60;16.48;;;16.50;70.90;;;;;;5057094;28;20063;-80
2023/07/29 11:45:54;;;;;;;18.08;10.23;;;16.40;70.90;;;;;;5053503;28;20025;-80
2023/07/29 11:48:34;;;;;;;16.63;9.75;;;16.30;70.90;;;;;;5055733;28;20032;-85
2023/07/29 11:51:03;;;;;;;20.67;11.50;;;16.30;71.40;;;;;;5057759;28;20024;-81
2023/07/29 11:53:31;;;;;;;15.38;10.98;;;16.30;71.70;;;;;;5050755;28;20472;-82
2023/07/29 11:55:59;;;;;;;19.33;12.48;;;16.20;72.00;;;;;;5036748;28;20037;-77
2023/07/29 11:58:27;;;;;;;16.08;10.85;;;16.20;72.20;;;;;;5052556;28;20169;-79
2023/07/29 12:00:54;;;;;;;18.33;10.32;;;16.30;72.10;;;;;;5051402;28;20083;-82
2023/07/29 12:03:22;;;;;;;19.38;10.20;;;16.20;72.10;;;;;;5049248;28;20016;-78
2023/07/29 12:05:50;;;;;;;14.25;9.73;;;16.20;72.30;;;;;;5049440;28;20031;-82
2023/07/29 12:08:18;;;;;;;17.58;10.93;;;16.20;72.40;;;;;;5049123;28;20032;-81
2023/07/29 12:10:45;;;;;;;17.58;11.10;;;16.20;72.90;;;;;;5057999;28;20025;-83
2023/07/29 12:13:13;;;;;;;19.92;10.50;;;16.20;72.70;;;;;;5055522;28;20395;-80
2023/07/29 12:15:41;;;;;;;13.63;9.48;;;16.20;72.30;;;;;;5052532;28;20364;-83
2023/07/29 12:18:09;;;;;;;16.30;10.32;;;16.20;72.30;;;;;;5057341;28;20041;-84
2023/07/29 12:20:38;;;;;;;17.58;9.98;;;16.10;72.60;;;;;;5056641;28;20017;-78
2023/07/29 12:23:07;;;;;;;21.13;9.63;;;16.10;72.80;;;;;;5048871;28;20021;-81
2023/07/29 12:25:35;;;;;;;14.02;8.15;;;16.10;72.70;;;;;;5046902;28;20062;-79
2023/07/29 12:28:07;;;;;;;14.95;8.32;;;16.00;72.60;;;;;;5052602;28;20048;-77
2023/07/29 12:30:34;;;;;;;14.52;7.90;;;16.00;72.80;;;;;;5050449;28;20078;-77
2023/07/29 12:33:01;;;;;;;14.32;7.65;;;16.00;73.10;;;;;;5049359;28;20112;-80
2023/07/29 12:35:38;;;;;;;13.85;7.35;;;16.00;73.00;;;;;;5062650;28;20024;-74
2023/07/29 12:38:06;;;;;;;11.40;7.00;;;16.00;73.20;;;;;;5052445;28;20130;-75
2023/07/29 12:40:38;;;;;;;11.95;6.57;;;16.00;73.30;;;;;;5058326;28;20036;-75
2023/07/29 12:43:05;;;;;;;11.48;6.90;;;16.00;73.30;;;;;;5057088;28;20024;-76
2023/07/29 12:45:39;;;;;;;10.90;6.90;;;15.90;73.40;;;;;;5061560;28;20017;-76
2023/07/29 12:48:06;;;;;;;13.40;6.72;;;15.90;73.30;;;;;;5040410;28;20071;-75
2023/07/29 12:50:34;;;;;;;9.00;6.07;;;15.90;73.50;;;;;;5050270;28;20026;-75